Sidnaw, Michigan
Current Conditions -  °F | °C
As of 8:35 PM on Saturday 20 Dec 2014 (Local Time) from KLNL Reporting Station
Haze Haze  
Wind Chill: 23°   Ceiling: 400
Heat Index: 28°   Visibility: 5mi
Dew Point: 28°   Wind: 5mph
Humidity: 98%   Direction: 180°S
Pressure: 30.13"   Gusts: NA
Location:  46.5°N, 88.71°W
Report Text: KLNL 210135Z AUTO 18004KT 5SM BR OVC004 M02/M02 A3013 RMK AO2 T10221025
Loading
Personal Weather Stations






























Interactive Weather Map New forecast layout! Learn more

10-Day Weather Forecast

Advertisements
Track Severe Weather on mobile